sensor_id;sensor_type;location;lat;lon;timestamp;P1;durP1;ratioP1;P2;durP2;ratioP2
77581;SDS011;66726;52.388;9.986;2023-05-07T00:01:55;19.13;;;16.37;;
77581;SDS011;66726;52.388;9.986;2023-05-07T00:04:27;20.90;;;17.17;;
77581;SDS011;66726;52.388;9.986;2023-05-07T00:07:03;19.93;;;16.43;;
77581;SDS011;66726;52.388;9.986;2023-05-07T00:09:36;18.77;;;16.07;;
77581;SDS011;66726;52.388;9.986;2023-05-07T00:12:08;19.93;;;16.57;;
77581;SDS011;66726;52.388;9.986;2023-05-07T00:14:40;18.40;;;16.50;;
77581;SDS011;66726;52.388;9.986;2023-05-07T00:17:12;18.10;;;15.47;;
77581;SDS011;66726;52.388;9.986;2023-05-07T00:19:43;20.80;;;17.50;;
77581;SDS011;66726;52.388;9.986;2023-05-07T00:22:15;21.37;;;17.43;;
77581;SDS011;66726;52.388;9.986;2023-05-07T00:24:48;19.80;;;17.20;;
77581;SDS011;66726;52.388;9.986;2023-05-07T00:27:20;21.13;;;18.13;;
77581;SDS011;66726;52.388;9.986;2023-05-07T00:29:52;21.50;;;17.37;;
77581;SDS011;66726;52.388;9.986;2023-05-07T00:32:24;23.27;;;18.67;;
77581;SDS011;66726;52.388;9.986;2023-05-07T00:34:56;19.73;;;17.60;;
77581;SDS011;66726;52.388;9.986;2023-05-07T00:37:28;22.50;;;19.70;;
77581;SDS011;66726;52.388;9.986;2023-05-07T00:40:01;22.30;;;19.63;;
77581;SDS011;66726;52.388;9.986;2023-05-07T00:42:36;23.77;;;20.03;;
77581;SDS011;66726;52.388;9.986;2023-05-07T00:45:07;21.33;;;18.97;;
77581;SDS011;66726;52.388;9.986;2023-05-07T00:47:40;21.73;;;19.40;;
77581;SDS011;66726;52.388;9.986;2023-05-07T00:50:12;23.33;;;20.60;;
77581;SDS011;66726;52.388;9.986;2023-05-07T00:52:45;23.47;;;19.47;;
77581;SDS011;66726;52.388;9.986;2023-05-07T00:55:18;24.70;;;20.20;;
77581;SDS011;66726;52.388;9.986;2023-05-07T00:57:51;26.03;;;20.07;;
77581;SDS011;66726;52.388;9.986;2023-05-07T01:00:22;24.17;;;20.40;;
77581;SDS011;66726;52.388;9.986;2023-05-07T01:02:54;24.13;;;20.90;;
77581;SDS011;66726;52.388;9.986;2023-05-07T01:05:27;23.90;;;20.60;;
77581;SDS011;66726;52.388;9.986;2023-05-07T01:08:00;24.27;;;20.37;;
77581;SDS011;66726;52.388;9.986;2023-05-07T01:10:35;23.93;;;20.73;;
77581;SDS011;66726;52.388;9.986;2023-05-07T01:13:09;22.83;;;19.90;;
77581;SDS011;66726;52.388;9.986;2023-05-07T01:15:42;23.00;;;20.10;;
77581;SDS011;66726;52.388;9.986;2023-05-07T01:18:14;23.13;;;19.30;;
77581;SDS011;66726;52.388;9.986;2023-05-07T01:20:46;22.53;;;19.07;;
77581;SDS011;66726;52.388;9.986;2023-05-07T01:23:19;24.70;;;19.47;;
77581;SDS011;66726;52.388;9.986;2023-05-07T01:25:52;22.20;;;19.33;;
77581;SDS011;66726;52.388;9.986;2023-05-07T01:28:23;24.73;;;20.03;;
77581;SDS011;66726;52.388;9.986;2023-05-07T01:30:56;21.70;;;18.13;;
77581;SDS011;66726;52.388;9.986;2023-05-07T01:33:33;25.33;;;19.50;;
77581;SDS011;66726;52.388;9.986;2023-05-07T01:36:09;25.27;;;20.43;;
77581;SDS011;66726;52.388;9.986;2023-05-07T01:38:43;23.63;;;20.43;;
77581;SDS011;66726;52.388;9.986;2023-05-07T01:41:16;24.20;;;20.13;;
77581;SDS011;66726;52.388;9.986;2023-05-07T01:43:50;24.03;;;21.27;;
77581;SDS011;66726;52.388;9.986;2023-05-07T01:46:25;23.97;;;21.37;;
77581;SDS011;66726;52.388;9.986;2023-05-07T01:48:58;22.53;;;19.93;;
77581;SDS011;66726;52.388;9.986;2023-05-07T01:51:30;24.70;;;21.30;;
77581;SDS011;66726;52.388;9.986;2023-05-07T01:54:05;24.27;;;19.80;;
77581;SDS011;66726;52.388;9.986;2023-05-07T01:56:37;22.70;;;18.87;;
77581;SDS011;66726;52.388;9.986;2023-05-07T01:59:08;19.30;;;16.83;;
77581;SDS011;66726;52.388;9.986;2023-05-07T02:01:40;21.80;;;17.03;;
77581;SDS011;66726;52.388;9.986;2023-05-07T02:04:12;20.07;;;16.97;;
77581;SDS011;66726;52.388;9.986;2023-05-07T02:06:44;20.67;;;17.40;;
77581;SDS011;66726;52.388;9.986;2023-05-07T02:09:17;23.80;;;17.17;;
77581;SDS011;66726;52.388;9.986;2023-05-07T02:11:50;20.10;;;16.57;;
77581;SDS011;66726;52.388;9.986;2023-05-07T02:14:21;18.57;;;16.53;;
77581;SDS011;66726;52.388;9.986;2023-05-07T02:16:53;16.37;;;14.60;;
77581;SDS011;66726;52.388;9.986;2023-05-07T02:19:25;18.73;;;14.17;;
77581;SDS011;66726;52.388;9.986;2023-05-07T02:21:57;16.20;;;13.80;;
77581;SDS011;66726;52.388;9.986;2023-05-07T02:24:30;14.83;;;13.23;;
77581;SDS011;66726;52.388;9.986;2023-05-07T02:27:02;19.53;;;15.17;;
77581;SDS011;66726;52.388;9.986;2023-05-07T02:29:33;21.27;;;17.53;;
77581;SDS011;66726;52.388;9.986;2023-05-07T02:32:06;18.77;;;15.87;;
77581;SDS011;66726;52.388;9.986;2023-05-07T02:34:37;19.37;;;16.10;;
77581;SDS011;66726;52.388;9.986;2023-05-07T02:37:10;18.87;;;15.93;;
77581;SDS011;66726;52.388;9.986;2023-05-07T02:39:43;20.30;;;17.10;;
77581;SDS011;66726;52.388;9.986;2023-05-07T02:42:15;19.67;;;16.23;;
77581;SDS011;66726;52.388;9.986;2023-05-07T02:44:46;17.37;;;14.70;;
77581;SDS011;66726;52.388;9.986;2023-05-07T02:47:18;15.77;;;13.57;;
77581;SDS011;66726;52.388;9.986;2023-05-07T02:49:53;18.23;;;14.23;;
77581;SDS011;66726;52.388;9.986;2023-05-07T02:52:25;15.37;;;13.43;;
77581;SDS011;66726;52.388;9.986;2023-05-07T02:54:59;15.57;;;13.57;;
77581;SDS011;66726;52.388;9.986;2023-05-07T02:57:30;15.93;;;13.67;;
77581;SDS011;66726;52.388;9.986;2023-05-07T03:00:09;16.07;;;14.07;;
77581;SDS011;66726;52.388;9.986;2023-05-07T03:02:42;16.00;;;14.10;;
77581;SDS011;66726;52.388;9.986;2023-05-07T03:05:14;17.40;;;13.70;;
77581;SDS011;66726;52.388;9.986;2023-05-07T03:07:47;16.60;;;14.57;;
77581;SDS011;66726;52.388;9.986;2023-05-07T03:10:20;17.40;;;15.30;;
77581;SDS011;66726;52.388;9.986;2023-05-07T03:12:52;16.33;;;14.43;;
77581;SDS011;66726;52.388;9.986;2023-05-07T03:15:23;17.60;;;14.20;;
77581;SDS011;66726;52.388;9.986;2023-05-07T03:17:56;16.13;;;13.93;;
77581;SDS011;66726;52.388;9.986;2023-05-07T03:20:29;15.93;;;13.90;;
77581;SDS011;66726;52.388;9.986;2023-05-07T03:23:02;15.27;;;13.40;;
77581;SDS011;66726;52.388;9.986;2023-05-07T03:25:35;16.23;;;13.63;;
77581;SDS011;66726;52.388;9.986;2023-05-07T03:28:07;14.70;;;13.13;;
77581;SDS011;66726;52.388;9.986;2023-05-07T03:30:39;14.83;;;13.23;;
77581;SDS011;66726;52.388;9.986;2023-05-07T03:33:11;14.83;;;13.23;;
77581;SDS011;66726;52.388;9.986;2023-05-07T03:35:42;15.63;;;14.03;;
77581;SDS011;66726;52.388;9.986;2023-05-07T03:38:14;15.97;;;12.87;;
77581;SDS011;66726;52.388;9.986;2023-05-07T03:40:47;15.27;;;13.60;;
77581;SDS011;66726;52.388;9.986;2023-05-07T03:43:19;16.07;;;14.00;;
77581;SDS011;66726;52.388;9.986;2023-05-07T03:45:51;14.87;;;13.30;;
77581;SDS011;66726;52.388;9.986;2023-05-07T03:48:23;15.43;;;13.83;;
77581;SDS011;66726;52.388;9.986;2023-05-07T03:50:55;13.70;;;12.33;;
77581;SDS011;66726;52.388;9.986;2023-05-07T03:53:26;14.00;;;12.50;;
77581;SDS011;66726;52.388;9.986;2023-05-07T03:56:00;14.87;;;13.37;;
77581;SDS011;66726;52.388;9.986;2023-05-07T03:58:32;13.23;;;11.83;;
77581;SDS011;66726;52.388;9.986;2023-05-07T04:01:03;14.77;;;12.27;;
77581;SDS011;66726;52.388;9.986;2023-05-07T04:03:35;13.70;;;12.27;;
77581;SDS011;66726;52.388;9.986;2023-05-07T04:06:07;13.73;;;12.10;;
77581;SDS011;66726;52.388;9.986;2023-05-07T04:08:40;13.50;;;12.10;;
77581;SDS011;66726;52.388;9.986;2023-05-07T04:11:13;13.90;;;11.53;;
77581;SDS011;66726;52.388;9.986;2023-05-07T04:13:46;13.47;;;12.07;;
77581;SDS011;66726;52.388;9.986;2023-05-07T04:16:18;13.90;;;12.40;;
77581;SDS011;66726;52.388;9.986;2023-05-07T04:18:50;12.87;;;11.53;;
77581;SDS011;66726;52.388;9.986;2023-05-07T04:21:22;13.70;;;12.30;;
77581;SDS011;66726;52.388;9.986;2023-05-07T04:23:53;13.27;;;11.43;;
77581;SDS011;66726;52.388;9.986;2023-05-07T04:26:27;13.40;;;11.27;;
77581;SDS011;66726;52.388;9.986;2023-05-07T04:29:00;13.33;;;11.93;;
77581;SDS011;66726;52.388;9.986;2023-05-07T04:31:31;12.70;;;11.40;;
77581;SDS011;66726;52.388;9.986;2023-05-07T04:34:03;13.17;;;11.77;;
77581;SDS011;66726;52.388;9.986;2023-05-07T04:36:35;13.23;;;11.23;;
77581;SDS011;66726;52.388;9.986;2023-05-07T04:39:07;12.67;;;11.20;;
77581;SDS011;66726;52.388;9.986;2023-05-07T04:41:40;13.13;;;11.73;;
77581;SDS011;66726;52.388;9.986;2023-05-07T04:44:12;14.47;;;12.63;;
77581;SDS011;66726;52.388;9.986;2023-05-07T04:46:44;13.83;;;12.33;;
77581;SDS011;66726;52.388;9.986;2023-05-07T04:49:16;11.60;;;10.40;;
77581;SDS011;66726;52.388;9.986;2023-05-07T04:51:47;11.37;;;10.17;;
77581;SDS011;66726;52.388;9.986;2023-05-07T04:54:19;11.57;;;10.33;;
77581;SDS011;66726;52.388;9.986;2023-05-07T04:56:53;11.30;;;10.07;;
77581;SDS011;66726;52.388;9.986;2023-05-07T04:59:24;11.07;;;9.97;;
77581;SDS011;66726;52.388;9.986;2023-05-07T05:01:56;10.13;;;9.13;;
77581;SDS011;66726;52.388;9.986;2023-05-07T05:04:30;10.87;;;9.77;;
77581;SDS011;66726;52.388;9.986;2023-05-07T05:07:03;11.10;;;9.10;;
77581;SDS011;66726;52.388;9.986;2023-05-07T05:09:34;11.47;;;9.67;;
77581;SDS011;66726;52.388;9.986;2023-05-07T05:12:07;10.03;;;8.67;;
77581;SDS011;66726;52.388;9.986;2023-05-07T05:14:39;10.63;;;9.53;;
77581;SDS011;66726;52.388;9.986;2023-05-07T05:17:11;10.00;;;8.53;;
77581;SDS011;66726;52.388;9.986;2023-05-07T05:19:43;9.97;;;8.97;;
77581;SDS011;66726;52.388;9.986;2023-05-07T05:22:15;10.20;;;9.13;;
77581;SDS011;66726;52.388;9.986;2023-05-07T05:24:47;10.10;;;9.03;;
77581;SDS011;66726;52.388;9.986;2023-05-07T05:27:20;10.17;;;9.17;;
77581;SDS011;66726;52.388;9.986;2023-05-07T05:29:52;9.23;;;8.10;;
77581;SDS011;66726;52.388;9.986;2023-05-07T05:32:24;10.13;;;9.13;;
77581;SDS011;66726;52.388;9.986;2023-05-07T05:34:55;9.77;;;8.77;;
77581;SDS011;66726;52.388;9.986;2023-05-07T05:37:27;11.00;;;9.90;;
77581;SDS011;66726;52.388;9.986;2023-05-07T05:39:59;10.53;;;9.43;;
77581;SDS011;66726;52.388;9.986;2023-05-07T05:42:34;11.17;;;9.97;;
77581;SDS011;66726;52.388;9.986;2023-05-07T05:45:07;10.37;;;9.37;;
77581;SDS011;66726;52.388;9.986;2023-05-07T05:47:39;10.77;;;9.67;;
77581;SDS011;66726;52.388;9.986;2023-05-07T05:50:10;10.30;;;9.30;;
77581;SDS011;66726;52.388;9.986;2023-05-07T05:52:42;10.57;;;9.60;;
77581;SDS011;66726;52.388;9.986;2023-05-07T05:55:15;10.20;;;9.20;;
77581;SDS011;66726;52.388;9.986;2023-05-07T05:57:49;10.23;;;9.30;;
77581;SDS011;66726;52.388;9.986;2023-05-07T06:00:24;9.90;;;8.90;;
77581;SDS011;66726;52.388;9.986;2023-05-07T06:02:57;9.97;;;8.97;;
77581;SDS011;66726;52.388;9.986;2023-05-07T06:05:28;9.30;;;8.43;;
77581;SDS011;66726;52.388;9.986;2023-05-07T06:08:00;15.60;;;9.30;;
77581;SDS011;66726;52.388;9.986;2023-05-07T06:10:33;9.13;;;8.23;;
77581;SDS011;66726;52.388;9.986;2023-05-07T06:13:06;9.63;;;8.73;;
77581;SDS011;66726;52.388;9.986;2023-05-07T06:15:39;9.60;;;8.80;;
77581;SDS011;66726;52.388;9.986;2023-05-07T06:18:13;10.20;;;9.20;;
77581;SDS011;66726;52.388;9.986;2023-05-07T06:20:49;9.93;;;8.97;;
77581;SDS011;66726;52.388;9.986;2023-05-07T06:23:20;9.17;;;8.33;;
77581;SDS011;66726;52.388;9.986;2023-05-07T06:25:52;8.73;;;7.93;;
77581;SDS011;66726;52.388;9.986;2023-05-07T06:28:25;9.67;;;8.73;;
77581;SDS011;66726;52.388;9.986;2023-05-07T06:31:11;10.33;;;9.33;;
77581;SDS011;66726;52.388;9.986;2023-05-07T06:33:43;9.90;;;8.90;;
77581;SDS011;66726;52.388;9.986;2023-05-07T06:36:16;10.40;;;9.40;;
77581;SDS011;66726;52.388;9.986;2023-05-07T06:38:48;11.87;;;10.43;;
77581;SDS011;66726;52.388;9.986;2023-05-07T06:41:20;11.97;;;10.80;;
77581;SDS011;66726;52.388;9.986;2023-05-07T06:43:54;11.27;;;10.27;;
77581;SDS011;66726;52.388;9.986;2023-05-07T06:46:27;11.60;;;10.50;;
77581;SDS011;66726;52.388;9.986;2023-05-07T06:48:58;12.00;;;10.87;;
77581;SDS011;66726;52.388;9.986;2023-05-07T06:51:32;10.67;;;9.67;;
77581;SDS011;66726;52.388;9.986;2023-05-07T06:54:03;12.37;;;11.10;;
77581;SDS011;66726;52.388;9.986;2023-05-07T06:56:35;13.30;;;12.00;;
77581;SDS011;66726;52.388;9.986;2023-05-07T06:59:09;13.87;;;12.57;;
77581;SDS011;66726;52.388;9.986;2023-05-07T07:01:41;12.90;;;11.60;;
77581;SDS011;66726;52.388;9.986;2023-05-07T07:04:13;13.13;;;11.87;;
77581;SDS011;66726;52.388;9.986;2023-05-07T07:06:45;13.50;;;12.20;;
77581;SDS011;66726;52.388;9.986;2023-05-07T07:09:17;12.50;;;11.20;;
77581;SDS011;66726;52.388;9.986;2023-05-07T07:11:49;12.93;;;11.63;;
77581;SDS011;66726;52.388;9.986;2023-05-07T07:14:22;12.73;;;11.53;;
77581;SDS011;66726;52.388;9.986;2023-05-07T07:16:54;12.27;;;11.13;;
77581;SDS011;66726;52.388;9.986;2023-05-07T07:19:26;12.73;;;11.53;;
77581;SDS011;66726;52.388;9.986;2023-05-07T07:21:58;13.23;;;11.17;;
77581;SDS011;66726;52.388;9.986;2023-05-07T07:24:30;12.10;;;10.93;;
77581;SDS011;66726;52.388;9.986;2023-05-07T07:27:02;10.47;;;9.47;;
77581;SDS011;66726;52.388;9.986;2023-05-07T07:29:35;10.00;;;9.10;;
77581;SDS011;66726;52.388;9.986;2023-05-07T07:32:06;10.53;;;9.53;;
77581;SDS011;66726;52.388;9.986;2023-05-07T07:34:38;9.80;;;8.80;;
77581;SDS011;66726;52.388;9.986;2023-05-07T07:37:10;9.40;;;8.50;;
77581;SDS011;66726;52.388;9.986;2023-05-07T07:39:42;9.10;;;8.30;;
77581;SDS011;66726;52.388;9.986;2023-05-07T07:42:16;8.80;;;8.07;;
77581;SDS011;66726;52.388;9.986;2023-05-07T07:44:49;9.13;;;8.27;;
77581;SDS011;66726;52.388;9.986;2023-05-07T07:47:20;9.13;;;8.23;;
77581;SDS011;66726;52.388;9.986;2023-05-07T07:49:52;8.87;;;8.07;;
77581;SDS011;66726;52.388;9.986;2023-05-07T07:52:24;9.30;;;8.33;;
77581;SDS011;66726;52.388;9.986;2023-05-07T07:54:56;9.17;;;8.27;;
77581;SDS011;66726;52.388;9.986;2023-05-07T07:57:29;9.17;;;8.23;;
77581;SDS011;66726;52.388;9.986;2023-05-07T08:00:04;9.20;;;8.30;;
77581;SDS011;66726;52.388;9.986;2023-05-07T08:02:39;8.60;;;7.80;;
77581;SDS011;66726;52.388;9.986;2023-05-07T08:05:11;8.93;;;8.13;;
77581;SDS011;66726;52.388;9.986;2023-05-07T08:07:42;9.23;;;8.33;;
77581;SDS011;66726;52.388;9.986;2023-05-07T08:10:19;9.10;;;8.20;;
77581;SDS011;66726;52.388;9.986;2023-05-07T08:12:51;9.03;;;8.23;;
77581;SDS011;66726;52.388;9.986;2023-05-07T08:15:24;8.40;;;7.70;;
77581;SDS011;66726;52.388;9.986;2023-05-07T08:17:57;8.20;;;7.40;;
77581;SDS011;66726;52.388;9.986;2023-05-07T08:20:30;8.67;;;7.77;;
77581;SDS011;66726;52.388;9.986;2023-05-07T08:23:07;9.00;;;7.60;;
77581;SDS011;66726;52.388;9.986;2023-05-07T08:25:40;7.60;;;6.90;;
77581;SDS011;66726;52.388;9.986;2023-05-07T08:28:12;8.20;;;7.40;;
77581;SDS011;66726;52.388;9.986;2023-05-07T08:30:46;8.83;;;7.97;;
77581;SDS011;66726;52.388;9.986;2023-05-07T08:33:19;8.80;;;8.00;;
77581;SDS011;66726;52.388;9.986;2023-05-07T08:35:51;9.00;;;8.17;;
77581;SDS011;66726;52.388;9.986;2023-05-07T08:38:23;10.27;;;8.33;;
77581;SDS011;66726;52.388;9.986;2023-05-07T08:40:54;8.77;;;7.97;;
77581;SDS011;66726;52.388;9.986;2023-05-07T08:43:26;8.03;;;7.33;;
77581;SDS011;66726;52.388;9.986;2023-05-07T08:46:04;9.37;;;8.47;;
77581;SDS011;66726;52.388;9.986;2023-05-07T08:48:39;8.97;;;8.17;;
77581;SDS011;66726;52.388;9.986;2023-05-07T08:51:12;9.57;;;8.53;;
77581;SDS011;66726;52.388;9.986;2023-05-07T08:53:47;9.30;;;8.37;;
77581;SDS011;66726;52.388;9.986;2023-05-07T08:56:20;9.27;;;8.37;;
77581;SDS011;66726;52.388;9.986;2023-05-07T08:58:51;8.87;;;8.07;;
77581;SDS011;66726;52.388;9.986;2023-05-07T09:01:26;8.90;;;8.00;;
77581;SDS011;66726;52.388;9.986;2023-05-07T09:03:58;9.57;;;7.90;;
77581;SDS011;66726;52.388;9.986;2023-05-07T09:06:30;8.00;;;7.17;;
77581;SDS011;66726;52.388;9.986;2023-05-07T09:09:03;9.27;;;8.27;;
77581;SDS011;66726;52.388;9.986;2023-05-07T09:11:35;10.27;;;9.27;;
77581;SDS011;66726;52.388;9.986;2023-05-07T09:14:07;12.23;;;8.90;;
77581;SDS011;66726;52.388;9.986;2023-05-07T09:16:40;9.43;;;8.47;;
77581;SDS011;66726;52.388;9.986;2023-05-07T09:19:13;9.57;;;8.67;;
77581;SDS011;66726;52.388;9.986;2023-05-07T09:21:59;9.73;;;8.83;;
77581;SDS011;66726;52.388;9.986;2023-05-07T09:24:35;9.47;;;8.53;;
77581;SDS011;66726;52.388;9.986;2023-05-07T09:27:08;9.20;;;8.33;;
77581;SDS011;66726;52.388;9.986;2023-05-07T09:29:40;9.13;;;8.17;;
77581;SDS011;66726;52.388;9.986;2023-05-07T09:32:13;9.17;;;8.27;;
77581;SDS011;66726;52.388;9.986;2023-05-07T09:34:46;9.70;;;8.80;;
77581;SDS011;66726;52.388;9.986;2023-05-07T09:37:18;10.10;;;9.20;;
77581;SDS011;66726;52.388;9.986;2023-05-07T09:39:52;12.47;;;11.27;;
77581;SDS011;66726;52.388;9.986;2023-05-07T09:42:25;11.03;;;9.97;;
77581;SDS011;66726;52.388;9.986;2023-05-07T09:44:58;10.87;;;9.87;;
77581;SDS011;66726;52.388;9.986;2023-05-07T09:47:33;11.87;;;10.10;;
77581;SDS011;66726;52.388;9.986;2023-05-07T09:50:12;10.90;;;9.90;;
77581;SDS011;66726;52.388;9.986;2023-05-07T09:52:46;11.43;;;10.37;;
77581;SDS011;66726;52.388;9.986;2023-05-07T09:55:19;12.07;;;10.97;;
77581;SDS011;66726;52.388;9.986;2023-05-07T09:57:53;11.90;;;10.73;;
77581;SDS011;66726;52.388;9.986;2023-05-07T10:00:26;12.07;;;10.87;;
77581;SDS011;66726;52.388;9.986;2023-05-07T10:03:01;11.37;;;10.23;;
77581;SDS011;66726;52.388;9.986;2023-05-07T10:05:35;10.00;;;9.00;;
77581;SDS011;66726;52.388;9.986;2023-05-07T10:08:10;10.40;;;9.40;;
77581;SDS011;66726;52.388;9.986;2023-05-07T10:10:43;10.20;;;9.20;;
77581;SDS011;66726;52.388;9.986;2023-05-07T10:13:16;10.13;;;9.13;;
77581;SDS011;66726;52.388;9.986;2023-05-07T10:15:51;9.37;;;8.47;;
77581;SDS011;66726;52.388;9.986;2023-05-07T10:18:25;9.97;;;8.97;;
77581;SDS011;66726;52.388;9.986;2023-05-07T10:21:01;9.03;;;8.23;;
77581;SDS011;66726;52.388;9.986;2023-05-07T10:23:38;10.03;;;9.13;;
77581;SDS011;66726;52.388;9.986;2023-05-07T10:26:16;9.60;;;8.70;;
77581;SDS011;66726;52.388;9.986;2023-05-07T10:28:53;8.33;;;7.63;;
77581;SDS011;66726;52.388;9.986;2023-05-07T10:31:42;9.97;;;8.43;;
77581;SDS011;66726;52.388;9.986;2023-05-07T10:34:24;8.60;;;7.80;;
77581;SDS011;66726;52.388;9.986;2023-05-07T10:37:03;8.10;;;7.40;;
77581;SDS011;66726;52.388;9.986;2023-05-07T10:39:37;9.03;;;8.13;;
77581;SDS011;66726;52.388;9.986;2023-05-07T10:42:11;8.00;;;7.30;;
77581;SDS011;66726;52.388;9.986;2023-05-07T10:44:44;8.10;;;7.30;;
77581;SDS011;66726;52.388;9.986;2023-05-07T10:47:16;7.43;;;6.73;;
77581;SDS011;66726;52.388;9.986;2023-05-07T11:02:09;8.80;;;7.13;;
77581;SDS011;66726;52.388;9.986;2023-05-07T11:04:41;7.63;;;6.93;;
77581;SDS011;66726;52.388;9.986;2023-05-07T11:07:35;7.30;;;6.70;;
77581;SDS011;66726;52.388;9.986;2023-05-07T11:10:07;7.10;;;6.40;;
77581;SDS011;66726;52.388;9.986;2023-05-07T11:12:48;6.60;;;6.00;;
77581;SDS011;66726;52.388;9.986;2023-05-07T11:15:42;7.33;;;6.70;;
77581;SDS011;66726;52.388;9.986;2023-05-07T11:18:14;8.10;;;7.00;;
77581;SDS011;66726;52.388;9.986;2023-05-07T11:20:50;6.97;;;6.27;;
77581;SDS011;66726;52.388;9.986;2023-05-07T11:26:43;6.90;;;6.30;;
77581;SDS011;66726;52.388;9.986;2023-05-07T11:29:17;7.00;;;6.40;;
77581;SDS011;66726;52.388;9.986;2023-05-07T11:31:49;7.00;;;6.33;;
77581;SDS011;66726;52.388;9.986;2023-05-07T11:34:23;6.87;;;6.20;;
77581;SDS011;66726;52.388;9.986;2023-05-07T11:36:58;6.77;;;6.07;;
77581;SDS011;66726;52.388;9.986;2023-05-07T11:39:31;6.90;;;6.30;;
77581;SDS011;66726;52.388;9.986;2023-05-07T11:42:04;7.70;;;7.00;;
77581;SDS011;66726;52.388;9.986;2023-05-07T11:44:52;8.03;;;7.33;;
77581;SDS011;66726;52.388;9.986;2023-05-07T11:47:24;7.60;;;6.87;;
77581;SDS011;66726;52.388;9.986;2023-05-07T11:50:02;7.50;;;6.80;;
77581;SDS011;66726;52.388;9.986;2023-05-07T11:52:36;6.83;;;6.23;;
77581;SDS011;66726;52.388;9.986;2023-05-07T11:55:19;7.40;;;6.70;;
77581;SDS011;66726;52.388;9.986;2023-05-07T11:57:52;6.90;;;6.30;;
77581;SDS011;66726;52.388;9.986;2023-05-07T12:00:25;6.10;;;5.60;;
77581;SDS011;66726;52.388;9.986;2023-05-07T12:02:57;6.23;;;5.63;;
77581;SDS011;66726;52.388;9.986;2023-05-07T12:05:33;6.17;;;5.57;;
77581;SDS011;66726;52.388;9.986;2023-05-07T12:08:09;6.10;;;5.50;;
77581;SDS011;66726;52.388;9.986;2023-05-07T12:10:48;5.73;;;5.00;;
77581;SDS011;66726;52.388;9.986;2023-05-07T12:13:23;6.00;;;5.50;;
77581;SDS011;66726;52.388;9.986;2023-05-07T12:15:57;5.73;;;5.20;;
77581;SDS011;66726;52.388;9.986;2023-05-07T12:18:32;5.70;;;5.20;;
77581;SDS011;66726;52.388;9.986;2023-05-07T12:21:05;5.63;;;5.13;;
77581;SDS011;66726;52.388;9.986;2023-05-07T12:23:39;5.10;;;4.70;;
77581;SDS011;66726;52.388;9.986;2023-05-07T12:26:12;5.70;;;5.20;;
77581;SDS011;66726;52.388;9.986;2023-05-07T12:28:46;5.80;;;5.30;;
77581;SDS011;66726;52.388;9.986;2023-05-07T12:31:18;5.30;;;4.90;;
77581;SDS011;66726;52.388;9.986;2023-05-07T12:33:52;5.60;;;4.87;;
77581;SDS011;66726;52.388;9.986;2023-05-07T12:36:24;5.40;;;4.90;;
77581;SDS011;66726;52.388;9.986;2023-05-07T12:39:05;4.90;;;4.20;;
77581;SDS011;66726;52.388;9.986;2023-05-07T12:41:54;5.80;;;5.30;;
77581;SDS011;66726;52.388;9.986;2023-05-07T12:44:28;5.70;;;5.20;;
77581;SDS011;66726;52.388;9.986;2023-05-07T12:47:02;5.07;;;4.57;;
77581;SDS011;66726;52.388;9.986;2023-05-07T12:49:34;4.87;;;4.47;;
77581;SDS011;66726;52.388;9.986;2023-05-07T12:52:06;5.47;;;4.97;;
77581;SDS011;66726;52.388;9.986;2023-05-07T12:54:41;4.77;;;4.37;;
77581;SDS011;66726;52.388;9.986;2023-05-07T12:57:18;5.60;;;5.10;;
77581;SDS011;66726;52.388;9.986;2023-05-07T12:59:50;4.70;;;4.30;;
77581;SDS011;66726;52.388;9.986;2023-05-07T13:02:31;5.10;;;4.70;;
77581;SDS011;66726;52.388;9.986;2023-05-07T13:05:10;5.73;;;5.23;;
77581;SDS011;66726;52.388;9.986;2023-05-07T13:07:53;5.80;;;5.30;;
77581;SDS011;66726;52.388;9.986;2023-05-07T13:10:26;8.10;;;5.53;;
77581;SDS011;66726;52.388;9.986;2023-05-07T13:13:01;5.70;;;5.20;;
77581;SDS011;66726;52.388;9.986;2023-05-07T13:15:33;5.53;;;5.03;;
77581;SDS011;66726;52.388;9.986;2023-05-07T13:18:04;6.47;;;5.87;;
77581;SDS011;66726;52.388;9.986;2023-05-07T13:20:37;5.77;;;5.27;;
77581;SDS011;66726;52.388;9.986;2023-05-07T13:23:09;5.67;;;5.17;;
77581;SDS011;66726;52.388;9.986;2023-05-07T13:25:40;6.33;;;5.80;;
77581;SDS011;66726;52.388;9.986;2023-05-07T13:28:14;6.07;;;5.57;;
77581;SDS011;66726;52.388;9.986;2023-05-07T13:30:46;6.60;;;5.83;;
77581;SDS011;66726;52.388;9.986;2023-05-07T13:33:18;7.80;;;6.20;;
77581;SDS011;66726;52.388;9.986;2023-05-07T13:35:50;6.47;;;5.87;;
77581;SDS011;66726;52.388;9.986;2023-05-07T13:38:25;6.33;;;5.73;;
77581;SDS011;66726;52.388;9.986;2023-05-07T13:40:56;7.13;;;5.80;;
77581;SDS011;66726;52.388;9.986;2023-05-07T13:43:29;5.83;;;5.33;;
77581;SDS011;66726;52.388;9.986;2023-05-07T13:46:01;6.00;;;5.50;;
77581;SDS011;66726;52.388;9.986;2023-05-07T13:48:33;5.77;;;5.17;;
77581;SDS011;66726;52.388;9.986;2023-05-07T13:51:05;5.73;;;5.23;;
77581;SDS011;66726;52.388;9.986;2023-05-07T13:53:37;6.40;;;5.80;;
77581;SDS011;66726;52.388;9.986;2023-05-07T13:56:09;6.77;;;6.13;;
77581;SDS011;66726;52.388;9.986;2023-05-07T13:58:42;7.60;;;5.83;;
77581;SDS011;66726;52.388;9.986;2023-05-07T14:01:25;5.60;;;5.10;;
77581;SDS011;66726;52.388;9.986;2023-05-07T14:03:58;6.53;;;5.37;;
77581;SDS011;66726;52.388;9.986;2023-05-07T14:06:30;5.97;;;5.37;;
77581;SDS011;66726;52.388;9.986;2023-05-07T14:09:01;6.23;;;5.63;;
77581;SDS011;66726;52.388;9.986;2023-05-07T14:11:33;6.77;;;5.23;;
77581;SDS011;66726;52.388;9.986;2023-05-07T14:14:07;6.13;;;5.47;;
77581;SDS011;66726;52.388;9.986;2023-05-07T14:16:38;5.80;;;5.27;;
77581;SDS011;66726;52.388;9.986;2023-05-07T14:19:11;6.90;;;6.20;;
77581;SDS011;66726;52.388;9.986;2023-05-07T14:21:43;6.37;;;5.77;;
77581;SDS011;66726;52.388;9.986;2023-05-07T14:24:17;5.83;;;5.33;;
77581;SDS011;66726;52.388;9.986;2023-05-07T14:27:03;6.13;;;5.63;;
77581;SDS011;66726;52.388;9.986;2023-05-07T14:29:36;6.20;;;5.60;;
77581;SDS011;66726;52.388;9.986;2023-05-07T14:32:11;6.53;;;5.03;;
77581;SDS011;66726;52.388;9.986;2023-05-07T14:34:42;9.03;;;5.93;;
77581;SDS011;66726;52.388;9.986;2023-05-07T14:37:14;6.27;;;5.30;;
77581;SDS011;66726;52.388;9.986;2023-05-07T14:39:46;6.23;;;5.53;;
77581;SDS011;66726;52.388;9.986;2023-05-07T14:42:18;5.23;;;4.77;;
77581;SDS011;66726;52.388;9.986;2023-05-07T14:44:51;6.03;;;5.43;;
77581;SDS011;66726;52.388;9.986;2023-05-07T14:47:23;8.00;;;5.70;;
77581;SDS011;66726;52.388;9.986;2023-05-07T14:49:55;6.33;;;5.73;;
77581;SDS011;66726;52.388;9.986;2023-05-07T14:52:29;5.93;;;5.43;;
77581;SDS011;66726;52.388;9.986;2023-05-07T14:55:01;6.60;;;6.00;;
77581;SDS011;66726;52.388;9.986;2023-05-07T14:57:34;5.60;;;5.03;;
77581;SDS011;66726;52.388;9.986;2023-05-07T15:00:08;5.57;;;4.90;;
77581;SDS011;66726;52.388;9.986;2023-05-07T15:02:42;6.47;;;4.73;;
77581;SDS011;66726;52.388;9.986;2023-05-07T15:05:14;5.50;;;5.00;;
77581;SDS011;66726;52.388;9.986;2023-05-07T15:07:46;5.30;;;4.60;;
77581;SDS011;66726;52.388;9.986;2023-05-07T15:10:18;5.63;;;5.03;;
77581;SDS011;66726;52.388;9.986;2023-05-07T15:12:49;5.20;;;4.70;;
77581;SDS011;66726;52.388;9.986;2023-05-07T15:15:23;5.70;;;5.20;;
77581;SDS011;66726;52.388;9.986;2023-05-07T15:17:54;7.27;;;6.57;;
77581;SDS011;66726;52.388;9.986;2023-05-07T15:20:27;6.97;;;5.97;;
77581;SDS011;66726;52.388;9.986;2023-05-07T15:23:00;6.07;;;5.57;;
77581;SDS011;66726;52.388;9.986;2023-05-07T15:25:35;6.73;;;6.03;;
77581;SDS011;66726;52.388;9.986;2023-05-07T15:28:10;5.63;;;5.13;;